Portada
METAR-TAF:

METAR-TAF

Aeroports :

Novosibirsk, Rússia

latitud: 55-01N, longitud: 082-38E, altitud: 111 m

Observació

L'informe es va fer fa 23 minuts, a les 05:00 UTC
Vent 14 kt del Sud/Sud-Oest
Temperatura 4°C
Humitat 60%
Pressió 1026 hPa
Visibilitat 10 km o més
Escasses núvols a una alçada de 4800 ft

METAR: UNNT 300500Z 20007MPS 9999 FEW048 04/M03 Q1026 R25/150060 R16/090070 NOSIG RMK QFE759/1013

Hora: 12:23 (05:23 UTC)

Pronòstic

L'informe es va fer fa 3 hores i 23 minuts, a les 02:00 UTC
Pronòstic vàlid del 30 a les 03 UTC al 31 a les 03 UTC
Vent 14 kt del Sud/Sud-Oest amb ràfegues de 29 kt
Visibilitat 10 km o més
sense núvols per sota de 1500 mi sense presència de cumulonimbus.

TAF: UNNT 300200Z 3003/3103 20007G15MPS CAVOK

Observacions i pronòstics meteorològics de més de 4000 aeroports (METAR i TAF).

Les estacions disponibles són els punts grocs i vermells al mapa.

Posi el ratolí al punt desitjat per veure el nom de l'estació.

Feu clic per veure les observacions i els pronòstics meteorològics.

Per canviar el mapa: feu clic els botons verds amb una creu de color negre per apropar; al botó verd amb un guió per allunyar la imatge; o en les fletxes verdes per a mapes adjacents.


METAR-TAF: